createdAt,value
2023-03-26T00:00:26.123Z,95496.00
2023-03-26T00:01:27.134Z,95498.00
2023-03-26T00:02:26.197Z,95502.00
2023-03-26T00:03:27.126Z,95506.00
2023-03-26T00:04:26.110Z,95504.00
2023-03-26T00:05:27.194Z,95506.00
2023-03-26T00:06:27.077Z,95504.00
2023-03-26T00:07:27.098Z,95500.00
2023-03-26T00:08:27.173Z,95500.00
2023-03-26T00:09:27.087Z,95498.00
2023-03-26T00:10:27.069Z,95498.00
2023-03-26T00:11:27.043Z,95498.00
2023-03-26T00:12:27.053Z,95500.00
2023-03-26T00:13:27.031Z,95502.00
2023-03-26T00:14:26.025Z,95500.00
2023-03-26T00:15:27.066Z,95498.00
2023-03-26T00:16:27.039Z,95494.00
2023-03-26T00:17:27.043Z,95494.00
2023-03-26T00:18:27.027Z,95492.00
2023-03-26T00:19:27.082Z,95490.00
2023-03-26T00:20:26.979Z,95488.00
2023-03-26T00:21:26.977Z,95486.00
2023-03-26T00:22:26.986Z,95482.00
2023-03-26T00:23:27.008Z,95482.00
2023-03-26T00:24:26.957Z,95482.00
2023-03-26T00:25:26.982Z,95482.00
2023-03-26T00:26:26.946Z,95477.00
2023-03-26T00:27:26.944Z,95471.00
2023-03-26T00:28:26.935Z,95467.00
2023-03-26T00:29:27.612Z,95461.00
2023-03-26T00:30:26.963Z,95461.00
2023-03-26T00:31:26.911Z,95457.00
2023-03-26T00:32:26.965Z,95457.00
2023-03-26T00:33:26.917Z,95453.00
2023-03-26T00:34:26.915Z,95447.00
2023-03-26T00:35:26.925Z,95449.00
2023-03-26T00:36:26.051Z,95447.00
2023-03-26T00:37:25.937Z,95449.00
2023-03-26T00:38:25.865Z,95451.00
2023-03-26T00:39:26.865Z,95451.00
2023-03-26T00:40:26.862Z,95457.00
2023-03-26T00:41:27.112Z,95457.00
2023-03-26T00:42:26.847Z,95461.00
2023-03-26T00:43:26.851Z,95463.00
2023-03-26T00:44:26.815Z,95463.00
2023-03-26T00:45:26.822Z,95463.00
2023-03-26T00:46:26.950Z,95461.00
2023-03-26T00:47:26.847Z,95467.00
2023-03-26T00:48:37.901Z,95465.00
2023-03-26T00:49:26.799Z,95469.00
2023-03-26T00:50:27.139Z,95475.00
2023-03-26T00:51:26.825Z,95473.00
2023-03-26T00:52:26.791Z,95471.00
2023-03-26T00:53:26.770Z,95465.00
2023-03-26T00:54:26.753Z,95459.00
2023-03-26T00:55:26.815Z,95453.00
2023-03-26T00:56:25.772Z,95449.00
2023-03-26T00:57:35.542Z,95449.00
2023-03-26T00:58:26.738Z,95451.00
2023-03-26T00:59:25.743Z,95447.00
2023-03-26T01:00:26.740Z,95447.00
2023-03-26T01:01:26.725Z,95445.00
2023-03-26T01:02:26.781Z,95447.00
2023-03-26T01:03:27.650Z,95449.00
2023-03-26T01:04:25.897Z,95449.00
2023-03-26T01:05:26.828Z,95449.00
2023-03-26T01:06:26.787Z,95445.00
2023-03-26T01:07:26.822Z,95445.00
2023-03-26T01:08:26.819Z,95445.00
2023-03-26T01:09:26.946Z,95445.00
2023-03-26T01:10:26.835Z,95445.00
2023-03-26T01:11:26.844Z,95443.00
2023-03-26T01:12:26.828Z,95445.00
2023-03-26T01:13:26.835Z,95441.00
2023-03-26T01:14:25.877Z,95430.00
2023-03-26T01:15:26.858Z,95430.00
2023-03-26T01:16:26.989Z,95430.00
2023-03-26T01:17:26.859Z,95439.00
2023-03-26T01:18:26.891Z,95443.00
2023-03-26T01:19:26.861Z,95447.00
2023-03-26T01:20:26.952Z,95447.00
2023-03-26T01:21:26.881Z,95453.00
2023-03-26T01:22:26.885Z,95455.00
2023-03-26T01:23:26.929Z,95455.00
2023-03-26T01:24:26.876Z,95455.00
2023-03-26T01:25:26.894Z,95457.00
2023-03-26T01:26:26.881Z,95459.00
2023-03-26T01:27:26.901Z,95459.00
2023-03-26T01:28:26.968Z,95459.00
2023-03-26T01:29:25.941Z,95457.00
2023-03-26T01:30:26.956Z,95455.00
2023-03-26T01:31:26.931Z,95453.00
2023-03-26T01:32:27.020Z,95451.00
2023-03-26T01:33:27.062Z,95445.00
2023-03-26T01:34:26.958Z,95432.00
2023-03-26T01:35:27.025Z,95427.00
2023-03-26T01:36:26.975Z,95422.00
2023-03-26T01:37:26.977Z,95420.00
2023-03-26T01:38:26.987Z,95416.00
2023-03-26T01:39:27.085Z,95412.00
2023-03-26T01:40:27.024Z,95408.00
2023-03-26T01:41:27.016Z,95408.00
2023-03-26T01:42:26.015Z,95406.00
2023-03-26T01:43:27.039Z,95406.00
2023-03-26T01:44:27.033Z,95404.00
2023-03-26T01:45:27.089Z,95406.00
2023-03-26T01:46:27.114Z,95408.00
2023-03-26T01:47:27.079Z,95408.00
2023-03-26T01:48:27.083Z,95412.00
2023-03-26T01:49:27.109Z,95410.00
2023-03-26T01:50:27.107Z,95414.00
2023-03-26T01:51:27.117Z,95418.00
2023-03-26T01:52:27.114Z,95422.00
2023-03-26T01:53:26.124Z,95430.00
2023-03-26T01:54:26.132Z,95443.00
2023-03-26T01:55:27.195Z,95449.00
2023-03-26T01:56:27.166Z,95447.00
2023-03-26T01:57:27.191Z,95449.00
2023-03-26T01:58:27.215Z,95447.00
2023-03-26T01:59:27.267Z,95445.00
2023-03-26T02:00:27.238Z,95449.00
2023-03-26T02:01:27.342Z,95449.00
2023-03-26T02:02:26.416Z,95449.00
2023-03-26T02:03:27.339Z,95447.00
2023-03-26T02:04:27.252Z,95439.00
2023-03-26T02:05:26.244Z,95439.00
2023-03-26T02:06:27.279Z,95430.00
2023-03-26T02:07:27.272Z,95427.00
2023-03-26T02:08:27.283Z,95425.00
2023-03-26T02:09:27.295Z,95420.00
2023-03-26T02:10:27.286Z,95420.00
2023-03-26T02:11:33.680Z,95420.00
2023-03-26T02:12:27.302Z,95420.00
2023-03-26T02:13:27.310Z,95425.00
2023-03-26T02:14:27.308Z,95424.00
2023-03-26T02:15:27.252Z,95425.00
2023-03-26T02:16:27.346Z,95425.00
2023-03-26T02:17:27.279Z,95420.00
2023-03-26T02:18:27.244Z,95418.00
2023-03-26T02:19:27.235Z,95416.00
2023-03-26T02:20:27.237Z,95414.00
2023-03-26T02:21:27.226Z,95410.00
2023-03-26T02:22:27.225Z,95408.00
2023-03-26T02:23:27.207Z,95408.00
2023-03-26T02:24:27.211Z,95404.00
2023-03-26T02:25:26.204Z,95400.00
2023-03-26T02:26:26.189Z,95400.00
2023-03-26T02:27:27.216Z,95400.00
2023-03-26T02:28:27.190Z,95404.00
2023-03-26T02:29:27.208Z,95406.00
2023-03-26T02:30:27.151Z,95406.00
2023-03-26T02:31:27.207Z,95408.00
2023-03-26T02:32:29.165Z,95412.00
2023-03-26T02:33:27.163Z,95414.00
2023-03-26T02:34:27.148Z,95418.00
2023-03-26T02:35:27.208Z,95420.00
2023-03-26T02:36:26.268Z,95422.00
2023-03-26T02:37:26.125Z,95425.00
2023-03-26T02:38:26.110Z,95430.00
2023-03-26T02:39:26.115Z,95443.00
2023-03-26T02:40:27.109Z,95449.00
2023-03-26T02:41:26.102Z,95451.00
2023-03-26T02:42:26.086Z,95453.00
2023-03-26T02:43:27.084Z,95447.00
2023-03-26T02:44:27.064Z,95443.00
2023-03-26T02:45:27.142Z,95439.00
2023-03-26T02:46:27.088Z,95427.00
2023-03-26T02:47:26.085Z,95424.00
2023-03-26T02:48:26.046Z,95418.00
2023-03-26T02:49:27.042Z,95414.00
2023-03-26T02:50:27.040Z,95406.00
2023-03-26T02:51:27.046Z,95404.00
2023-03-26T02:52:27.026Z,95398.00
2023-03-26T02:53:27.005Z,95396.00
2023-03-26T02:54:26.997Z,95398.00
2023-03-26T02:55:26.985Z,95402.00
2023-03-26T02:56:26.972Z,95396.00
2023-03-26T02:57:27.002Z,95398.00
2023-03-26T02:58:26.978Z,95398.00
2023-03-26T02:59:26.971Z,95400.00
2023-03-26T03:00:26.958Z,95402.00
2023-03-26T03:01:25.995Z,95400.00
2023-03-26T03:02:26.989Z,95400.00
2023-03-26T03:03:26.990Z,95402.00
2023-03-26T03:04:25.955Z,95402.00
2023-03-26T03:05:26.938Z,95406.00
2023-03-26T03:06:26.919Z,95406.00
2023-03-26T03:07:26.910Z,95406.00
2023-03-26T03:08:26.925Z,95408.00
2023-03-26T03:09:26.886Z,95406.00
2023-03-26T03:10:26.886Z,95404.00
2023-03-26T03:11:26.879Z,95402.00
2023-03-26T03:12:26.877Z,95398.00
2023-03-26T03:13:28.669Z,95396.00
2023-03-26T03:14:26.845Z,95396.00
2023-03-26T03:15:26.867Z,95396.00
2023-03-26T03:16:26.944Z,95394.00
2023-03-26T03:17:26.852Z,95388.00
2023-03-26T03:18:25.842Z,95385.00
2023-03-26T03:19:26.854Z,95383.00
2023-03-26T03:20:26.840Z,95379.00
2023-03-26T03:21:26.812Z,95381.00
2023-03-26T03:22:26.821Z,95373.00
2023-03-26T03:23:26.798Z,95371.00
2023-03-26T03:24:26.797Z,95367.00
2023-03-26T03:25:26.781Z,95363.00
2023-03-26T03:26:26.816Z,95361.00
2023-03-26T03:27:28.677Z,95359.00
2023-03-26T03:28:26.783Z,95355.00
2023-03-26T03:29:26.742Z,95357.00
2023-03-26T03:30:25.762Z,95357.00
2023-03-26T03:31:26.791Z,95357.00
2023-03-26T03:32:25.782Z,95355.00
2023-03-26T03:33:26.729Z,95353.00
2023-03-26T03:34:26.724Z,95351.00
2023-03-26T03:35:26.773Z,95349.00
2023-03-26T03:36:26.710Z,95347.00
2023-03-26T03:37:26.696Z,95347.00
2023-03-26T03:38:26.675Z,95347.00
2023-03-26T03:39:25.731Z,95345.00
2023-03-26T03:40:26.671Z,95345.00
2023-03-26T03:41:25.664Z,95347.00
2023-03-26T03:42:26.671Z,95347.00
2023-03-26T03:43:26.652Z,95347.00
2023-03-26T03:44:26.638Z,95347.00
2023-03-26T03:45:26.630Z,95349.00
2023-03-26T03:46:25.691Z,95347.00
2023-03-26T03:47:26.663Z,95345.00
2023-03-26T03:48:26.630Z,95345.00
2023-03-26T03:49:26.629Z,95345.00
2023-03-26T03:50:25.601Z,95343.00
2023-03-26T03:51:26.616Z,95343.00
2023-03-26T03:52:27.176Z,95339.00
2023-03-26T03:53:25.603Z,95338.00
2023-03-26T03:54:26.583Z,95338.00
2023-03-26T03:55:25.579Z,95338.00
2023-03-26T03:56:26.591Z,95339.00
2023-03-26T03:57:27.197Z,95336.00
2023-03-26T03:58:26.601Z,95336.00
2023-03-26T03:59:26.552Z,95339.00
2023-03-26T04:00:26.523Z,95336.00
2023-03-26T04:01:26.590Z,95336.00
2023-03-26T04:02:27.067Z,95336.00
2023-03-26T04:03:33.655Z,95338.00
2023-03-26T04:04:26.557Z,95336.00
2023-03-26T04:05:25.499Z,95334.00
2023-03-26T04:06:26.536Z,95332.00
2023-03-26T04:07:26.610Z,95330.00
2023-03-26T04:08:25.503Z,95326.00
2023-03-26T04:09:26.483Z,95326.00
2023-03-26T04:10:26.460Z,95324.00
2023-03-26T04:11:26.459Z,95324.00
2023-03-26T04:12:25.453Z,95324.00
2023-03-26T04:13:26.455Z,95320.00
2023-03-26T04:14:26.435Z,95320.00
2023-03-26T04:15:26.431Z,95324.00
2023-03-26T04:16:26.427Z,95322.00
2023-03-26T04:17:25.536Z,95318.00
2023-03-26T04:18:25.415Z,95318.00
2023-03-26T04:19:26.415Z,95316.00
2023-03-26T04:20:26.392Z,95314.00
2023-03-26T04:21:26.416Z,95314.00
2023-03-26T04:22:26.434Z,95310.00
2023-03-26T04:23:26.383Z,95308.00
2023-03-26T04:24:26.361Z,95304.00
2023-03-26T04:25:26.359Z,95300.00
2023-03-26T04:26:26.355Z,95304.00
2023-03-26T04:27:26.383Z,95300.00
2023-03-26T04:28:26.364Z,95298.00
2023-03-26T04:29:26.319Z,95294.00
2023-03-26T04:30:26.304Z,95294.00
2023-03-26T04:31:26.328Z,95294.00
2023-03-26T04:32:25.324Z,95296.00
2023-03-26T04:33:26.300Z,95298.00
2023-03-26T04:34:26.358Z,95300.00
2023-03-26T04:35:26.301Z,95300.00
2023-03-26T04:36:26.281Z,95304.00
2023-03-26T04:37:26.279Z,95304.00
2023-03-26T04:38:26.266Z,95310.00
2023-03-26T04:39:26.313Z,95306.00
2023-03-26T04:40:26.244Z,95306.00
2023-03-26T04:41:26.367Z,95306.00
2023-03-26T04:42:26.233Z,95306.00
2023-03-26T04:43:28.201Z,95306.00
2023-03-26T04:44:26.204Z,95308.00
2023-03-26T04:45:26.215Z,95310.00
2023-03-26T04:46:25.214Z,95310.00
2023-03-26T04:47:26.226Z,95310.00
2023-03-26T04:48:26.214Z,95310.00
2023-03-26T04:49:26.200Z,95310.00
2023-03-26T04:50:26.176Z,95310.00
2023-03-26T04:51:26.194Z,95310.00
2023-03-26T04:52:26.167Z,95312.00
2023-03-26T04:53:26.160Z,95308.00
2023-03-26T04:54:26.149Z,95302.00
2023-03-26T04:55:26.141Z,95302.00
2023-03-26T04:56:26.144Z,95300.00
2023-03-26T04:57:26.153Z,95296.00
2023-03-26T04:58:26.127Z,95296.00
2023-03-26T04:59:25.119Z,95294.00
2023-03-26T05:00:26.116Z,95294.00
2023-03-26T05:01:26.125Z,95292.00
2023-03-26T05:02:26.242Z,95294.00
2023-03-26T05:03:26.083Z,95291.00
2023-03-26T05:04:26.122Z,95292.00
2023-03-26T05:05:26.079Z,95292.00
2023-03-26T05:06:26.063Z,95292.00
2023-03-26T05:07:26.090Z,95292.00
2023-03-26T05:08:26.052Z,95294.00
2023-03-26T05:09:26.037Z,95294.00
2023-03-26T05:10:26.037Z,95294.00
2023-03-26T05:11:26.021Z,95294.00
2023-03-26T05:12:26.018Z,95294.00
2023-03-26T05:13:26.015Z,95294.00
2023-03-26T05:14:26.021Z,95294.00
2023-03-26T05:15:25.990Z,95294.00
2023-03-26T05:16:26.047Z,95292.00
2023-03-26T05:17:26.008Z,95292.00
2023-03-26T05:18:25.972Z,95294.00
2023-03-26T05:19:25.962Z,95292.00
2023-03-26T05:20:25.965Z,95292.00
2023-03-26T05:21:25.985Z,95289.00
2023-03-26T05:22:25.936Z,95289.00
2023-03-26T05:23:25.957Z,95287.00
2023-03-26T05:24:26.721Z,95287.00
2023-03-26T05:25:24.920Z,95289.00
2023-03-26T05:26:25.926Z,95287.00
2023-03-26T05:27:25.916Z,95287.00
2023-03-26T05:28:25.899Z,95287.00
2023-03-26T05:29:25.910Z,95285.00
2023-03-26T05:30:25.880Z,95287.00
2023-03-26T05:31:25.870Z,95289.00
2023-03-26T05:32:25.896Z,95285.00
2023-03-26T05:33:24.966Z,95285.00
2023-03-26T05:34:25.896Z,95285.00
2023-03-26T05:35:25.966Z,95277.00
2023-03-26T05:36:25.976Z,95277.00
2023-03-26T05:37:25.979Z,95275.00
2023-03-26T05:38:26.029Z,95273.00
2023-03-26T05:39:26.045Z,95271.00
2023-03-26T05:40:25.038Z,95271.00
2023-03-26T05:41:26.083Z,95267.00
2023-03-26T05:42:26.105Z,95267.00
2023-03-26T05:43:26.336Z,95259.00
2023-03-26T05:44:26.171Z,95259.00
2023-03-26T05:45:26.192Z,95255.00
2023-03-26T05:46:26.265Z,95257.00
2023-03-26T05:47:26.255Z,95257.00
2023-03-26T05:48:26.318Z,95255.00
2023-03-26T05:49:25.325Z,95253.00
2023-03-26T05:50:26.318Z,95249.00
2023-03-26T05:51:26.336Z,95247.00
2023-03-26T05:52:26.351Z,95247.00
2023-03-26T05:53:26.413Z,95245.00
2023-03-26T05:54:26.396Z,95242.00
2023-03-26T05:55:26.680Z,95242.00
2023-03-26T05:56:26.433Z,95240.00
2023-03-26T05:57:26.471Z,95240.00
2023-03-26T05:58:26.579Z,95240.00
2023-03-26T05:59:26.523Z,95240.00
2023-03-26T06:00:26.557Z,95240.00
2023-03-26T06:01:26.565Z,95240.00
2023-03-26T06:02:26.627Z,95244.00
2023-03-26T06:03:26.723Z,95244.00
2023-03-26T06:04:26.697Z,95242.00
2023-03-26T06:05:26.640Z,95240.00
2023-03-26T06:06:25.674Z,95240.00
2023-03-26T06:07:26.755Z,95238.00
2023-03-26T06:08:26.750Z,95236.00
2023-03-26T06:09:26.814Z,95238.00
2023-03-26T06:10:26.801Z,95238.00
2023-03-26T06:11:26.796Z,95234.00
2023-03-26T06:12:26.823Z,95236.00
2023-03-26T06:13:26.912Z,95236.00
2023-03-26T06:14:26.876Z,95232.00
2023-03-26T06:15:26.945Z,95226.00
2023-03-26T06:16:27.721Z,95220.00
2023-03-26T06:17:27.006Z,95220.00
2023-03-26T06:18:27.049Z,95214.00
2023-03-26T06:19:27.080Z,95212.00
2023-03-26T06:20:27.087Z,95208.00
2023-03-26T06:21:27.068Z,95208.00
2023-03-26T06:22:27.094Z,95206.00
2023-03-26T06:23:27.131Z,95205.00
2023-03-26T06:24:26.191Z,95203.00
2023-03-26T06:25:26.192Z,95205.00
2023-03-26T06:26:27.200Z,95205.00
2023-03-26T06:27:27.243Z,95195.00
2023-03-26T06:28:27.281Z,95195.00
2023-03-26T06:29:27.280Z,95191.00
2023-03-26T06:30:27.321Z,95197.00
2023-03-26T06:31:27.403Z,95197.00
2023-03-26T06:32:27.404Z,95191.00
2023-03-26T06:33:27.411Z,95189.00
2023-03-26T06:34:27.437Z,95189.00
2023-03-26T06:35:27.444Z,95189.00
2023-03-26T06:36:26.544Z,95185.00
2023-03-26T06:37:26.495Z,95185.00
2023-03-26T06:38:27.544Z,95173.00
2023-03-26T06:39:27.560Z,95175.00
2023-03-26T06:40:27.602Z,95169.00
2023-03-26T06:41:27.633Z,95169.00
2023-03-26T06:42:32.049Z,95171.00
2023-03-26T06:43:27.701Z,95169.00
2023-03-26T06:44:27.663Z,95167.00
2023-03-26T06:45:27.624Z,95163.00
2023-03-26T06:46:26.636Z,95165.00
2023-03-26T06:47:27.683Z,95165.00
2023-03-26T06:48:27.608Z,95159.00
2023-03-26T06:49:27.615Z,95157.00
2023-03-26T06:50:27.591Z,95153.00
2023-03-26T06:51:27.590Z,95153.00
2023-03-26T06:52:26.634Z,95155.00
2023-03-26T06:53:26.572Z,95152.00
2023-03-26T06:54:26.554Z,95150.00
2023-03-26T06:55:27.616Z,95153.00
2023-03-26T06:56:26.557Z,95148.00
2023-03-26T06:57:27.566Z,95150.00
2023-03-26T06:58:27.533Z,95148.00
2023-03-26T06:59:27.579Z,95144.00
2023-03-26T07:00:27.569Z,95142.00
2023-03-26T07:01:27.602Z,95138.00
2023-03-26T07:02:26.678Z,95138.00
2023-03-26T07:03:27.636Z,95132.00
2023-03-26T07:04:27.784Z,95130.00
2023-03-26T07:05:27.745Z,95130.00
2023-03-26T07:06:27.738Z,95130.00
2023-03-26T07:07:27.735Z,95128.00
2023-03-26T07:08:27.764Z,95128.00
2023-03-26T07:09:27.812Z,95126.00
2023-03-26T07:10:27.825Z,95126.00
2023-03-26T07:11:26.880Z,95120.00
2023-03-26T07:12:27.867Z,95118.00
2023-03-26T07:13:27.945Z,95113.00
2023-03-26T07:14:27.961Z,95111.00
2023-03-26T07:15:27.977Z,95113.00
2023-03-26T07:16:28.012Z,95113.00
2023-03-26T07:17:28.051Z,95113.00
2023-03-26T07:18:28.045Z,95109.00
2023-03-26T07:19:27.062Z,95103.00
2023-03-26T07:20:27.113Z,95095.00
2023-03-26T07:21:28.130Z,95087.00
2023-03-26T07:22:28.152Z,95083.00
2023-03-26T07:23:27.178Z,95083.00
2023-03-26T07:24:28.278Z,95083.00
2023-03-26T07:25:27.238Z,95081.00
2023-03-26T07:26:28.271Z,95075.00
2023-03-26T07:27:28.295Z,95067.00
2023-03-26T07:28:28.351Z,95061.00
2023-03-26T07:29:28.356Z,95061.00
2023-03-26T07:30:28.372Z,95061.00
2023-03-26T07:31:28.452Z,95061.00
2023-03-26T07:32:28.428Z,95061.00
2023-03-26T07:33:28.490Z,95059.00
2023-03-26T07:34:28.553Z,95056.00
2023-03-26T07:35:28.584Z,95052.00
2023-03-26T07:36:28.539Z,95048.00
2023-03-26T07:37:27.542Z,95048.00
2023-03-26T07:38:27.601Z,95046.00
2023-03-26T07:39:28.598Z,95048.00
2023-03-26T07:40:28.623Z,95042.00
2023-03-26T07:41:28.644Z,95040.00
2023-03-26T07:42:28.689Z,95036.00
2023-03-26T07:43:28.706Z,95032.00
2023-03-26T07:44:28.738Z,95030.00
2023-03-26T07:45:28.802Z,95026.00
2023-03-26T07:46:28.777Z,95022.00
2023-03-26T07:47:27.879Z,95019.00
2023-03-26T07:48:28.842Z,95019.00
2023-03-26T07:49:28.921Z,95017.00
2023-03-26T07:50:28.909Z,95014.00
2023-03-26T07:51:28.912Z,95011.00
2023-03-26T07:52:28.960Z,95011.00
2023-03-26T07:53:28.958Z,95005.00
2023-03-26T07:54:29.003Z,95001.00
2023-03-26T07:55:29.009Z,95001.00
2023-03-26T07:56:29.092Z,94999.00
2023-03-26T07:57:28.075Z,95001.00
2023-03-26T07:58:29.109Z,94999.00
2023-03-26T07:59:29.103Z,95001.00
2023-03-26T08:00:28.071Z,94995.00
2023-03-26T08:01:29.101Z,94997.00
2023-03-26T08:02:29.166Z,94997.00
2023-03-26T08:03:29.273Z,94995.00
2023-03-26T08:04:28.320Z,94995.00
2023-03-26T08:05:29.753Z,94997.00
2023-03-26T08:06:29.188Z,94995.00
2023-03-26T08:07:29.215Z,94993.00
2023-03-26T08:08:29.252Z,94993.00
2023-03-26T08:09:29.253Z,94991.00
2023-03-26T08:10:29.264Z,94987.00
2023-03-26T08:11:29.295Z,94985.00
2023-03-26T08:12:29.308Z,94981.00
2023-03-26T08:13:29.321Z,94981.00
2023-03-26T08:14:29.407Z,94977.00
2023-03-26T08:15:28.361Z,94975.00
2023-03-26T08:16:29.360Z,94973.00
2023-03-26T08:17:31.146Z,94972.00
2023-03-26T08:18:29.362Z,94970.00
2023-03-26T08:19:28.397Z,94964.00
2023-03-26T08:20:28.455Z,94960.00
2023-03-26T08:21:29.399Z,94958.00
2023-03-26T08:22:29.348Z,94958.00
2023-03-26T08:23:29.347Z,94952.00
2023-03-26T08:24:29.343Z,94950.00
2023-03-26T08:25:29.315Z,94948.00
2023-03-26T08:26:29.313Z,94942.00
2023-03-26T08:27:29.296Z,94934.00
2023-03-26T08:28:29.323Z,94932.00
2023-03-26T08:29:29.385Z,94926.00
2023-03-26T08:30:29.309Z,94915.00
2023-03-26T08:31:28.335Z,94909.00
2023-03-26T08:32:29.304Z,94905.00
2023-03-26T08:33:28.270Z,94905.00
2023-03-26T08:34:28.266Z,94901.00
2023-03-26T08:35:29.316Z,94897.00
2023-03-26T08:36:29.246Z,94899.00
2023-03-26T08:37:29.296Z,94895.00
2023-03-26T08:38:29.231Z,94891.00
2023-03-26T08:39:28.207Z,94889.00
2023-03-26T08:40:29.322Z,94887.00
2023-03-26T08:41:29.220Z,94885.00
2023-03-26T08:42:29.190Z,94885.00
2023-03-26T08:43:29.212Z,94887.00
2023-03-26T08:44:29.189Z,94887.00
2023-03-26T08:45:29.192Z,94883.00
2023-03-26T08:46:29.185Z,94878.00
2023-03-26T08:47:28.239Z,94876.00
2023-03-26T08:48:29.136Z,94870.00
2023-03-26T08:49:29.818Z,94868.00
2023-03-26T08:50:29.168Z,94864.00
2023-03-26T08:51:29.165Z,94860.00
2023-03-26T08:52:29.121Z,94858.00
2023-03-26T08:53:28.120Z,94852.00
2023-03-26T08:54:28.103Z,94850.00
2023-03-26T08:55:29.114Z,94854.00
2023-03-26T08:56:28.103Z,94848.00
2023-03-26T08:57:29.086Z,94848.00
2023-03-26T08:58:29.071Z,94848.00
2023-03-26T08:59:29.061Z,94844.00
2023-03-26T09:00:29.049Z,94844.00
2023-03-26T09:01:29.120Z,94842.00
2023-03-26T09:02:29.053Z,94842.00
2023-03-26T09:03:28.042Z,94840.00
2023-03-26T09:04:29.066Z,94840.00
2023-03-26T09:05:29.019Z,94840.00
2023-03-26T09:06:29.018Z,94842.00
2023-03-26T09:07:29.024Z,94848.00
2023-03-26T09:08:30.292Z,94850.00
2023-03-26T09:09:27.992Z,94854.00
2023-03-26T09:10:28.979Z,94852.00
2023-03-26T09:11:28.976Z,94854.00
2023-03-26T09:12:28.957Z,94854.00
2023-03-26T09:13:28.958Z,94852.00
2023-03-26T09:14:29.026Z,94848.00
2023-03-26T09:15:27.954Z,94842.00
2023-03-26T09:16:28.988Z,94836.00
2023-03-26T09:17:28.974Z,94831.00
2023-03-26T09:18:28.928Z,94825.00
2023-03-26T09:19:28.932Z,94825.00
2023-03-26T09:20:28.929Z,94829.00
2023-03-26T09:21:28.952Z,94834.00
2023-03-26T09:22:28.913Z,94838.00
2023-03-26T09:23:28.942Z,94838.00
2023-03-26T09:24:28.907Z,94834.00
2023-03-26T09:25:28.887Z,94833.00
2023-03-26T09:26:27.952Z,94829.00
2023-03-26T09:27:28.879Z,94827.00
2023-03-26T09:28:28.978Z,94827.00
2023-03-26T09:29:29.719Z,94823.00
2023-03-26T09:30:28.872Z,94821.00
2023-03-26T09:31:27.939Z,94823.00
2023-03-26T09:32:28.936Z,94827.00
2023-03-26T09:33:28.853Z,94831.00
2023-03-26T09:34:28.874Z,94834.00
2023-03-26T09:35:28.861Z,94834.00
2023-03-26T09:36:28.840Z,94834.00
2023-03-26T09:37:28.835Z,94833.00
2023-03-26T09:38:28.862Z,94831.00
2023-03-26T09:39:28.844Z,94827.00
2023-03-26T09:40:28.795Z,94819.00
2023-03-26T09:41:28.799Z,94813.00
2023-03-26T09:42:28.786Z,94807.00
2023-03-26T09:43:28.778Z,94799.00
2023-03-26T09:44:28.773Z,94797.00
2023-03-26T09:45:28.856Z,94795.00
2023-03-26T09:46:28.786Z,94794.00
2023-03-26T09:47:28.802Z,94795.00
2023-03-26T09:48:28.755Z,94797.00
2023-03-26T09:49:27.728Z,94803.00
2023-03-26T09:50:28.734Z,94803.00
2023-03-26T09:51:28.720Z,94799.00
2023-03-26T09:52:28.719Z,94799.00
2023-03-26T09:53:28.721Z,94797.00
2023-03-26T09:54:28.704Z,94792.00
2023-03-26T09:55:28.741Z,94790.00
2023-03-26T09:56:27.707Z,94790.00
2023-03-26T09:57:28.695Z,94795.00
2023-03-26T09:58:27.675Z,94797.00
2023-03-26T09:59:28.663Z,94799.00
2023-03-26T10:00:28.673Z,94799.00
2023-03-26T10:01:28.662Z,94795.00
2023-03-26T10:02:46.890Z,94790.00
2023-03-26T10:03:28.710Z,94790.00
2023-03-26T10:04:28.680Z,94790.00
2023-03-26T10:05:28.614Z,94790.00
2023-03-26T10:06:28.630Z,94788.00
2023-03-26T10:07:27.601Z,94788.00
2023-03-26T10:08:28.471Z,94790.00
2023-03-26T10:09:27.600Z,94792.00
2023-03-26T10:10:28.583Z,94794.00
2023-03-26T10:11:28.620Z,94794.00
2023-03-26T10:12:27.558Z,94795.00
2023-03-26T10:13:27.555Z,94788.00
2023-03-26T10:14:28.554Z,94784.00
2023-03-26T10:15:27.548Z,94784.00
2023-03-26T10:16:28.645Z,94784.00
2023-03-26T10:17:27.569Z,94788.00
2023-03-26T10:18:29.898Z,94790.00
2023-03-26T10:19:28.503Z,94794.00
2023-03-26T10:20:27.515Z,94801.00
2023-03-26T10:21:28.659Z,94809.00
2023-03-26T10:22:28.507Z,94815.00
2023-03-26T10:23:28.498Z,94815.00
2023-03-26T10:24:28.470Z,94817.00
2023-03-26T10:25:28.477Z,94811.00
2023-03-26T10:26:28.471Z,94817.00
2023-03-26T10:27:30.318Z,94813.00
2023-03-26T10:28:28.469Z,94811.00
2023-03-26T10:29:27.440Z,94813.00
2023-03-26T10:30:28.464Z,94815.00
2023-03-26T10:31:28.599Z,94813.00
2023-03-26T10:32:28.538Z,94811.00
2023-03-26T10:33:28.410Z,94805.00
2023-03-26T10:34:28.434Z,94803.00
2023-03-26T10:35:28.407Z,94801.00
2023-03-26T10:36:28.386Z,94809.00
2023-03-26T10:37:28.418Z,94813.00
2023-03-26T10:38:28.380Z,94817.00
2023-03-26T10:39:37.304Z,94815.00
2023-03-26T10:40:28.373Z,94809.00
2023-03-26T10:41:28.354Z,94805.00
2023-03-26T10:42:28.383Z,94797.00
2023-03-26T10:43:28.483Z,94794.00
2023-03-26T10:44:28.362Z,94799.00
2023-03-26T10:45:28.354Z,94803.00
2023-03-26T10:46:28.367Z,94799.00
2023-03-26T10:47:28.400Z,94792.00
2023-03-26T10:48:28.317Z,94790.00
2023-03-26T10:49:28.327Z,94790.00
2023-03-26T10:50:28.280Z,94794.00
2023-03-26T10:51:28.325Z,94795.00
2023-03-26T10:52:28.290Z,94797.00
2023-03-26T10:53:27.309Z,94792.00
2023-03-26T10:54:28.275Z,94788.00
2023-03-26T10:55:28.387Z,94788.00
2023-03-26T10:56:28.289Z,94790.00
2023-03-26T10:57:27.300Z,94792.00
2023-03-26T10:58:28.271Z,94795.00
2023-03-26T10:59:28.276Z,94795.00
2023-03-26T11:00:28.542Z,94790.00
2023-03-26T11:01:28.328Z,94782.00
2023-03-26T11:02:30.523Z,94776.00
2023-03-26T11:03:28.207Z,94772.00
2023-03-26T11:04:27.184Z,94772.00
2023-03-26T11:05:28.296Z,94776.00
2023-03-26T11:06:28.200Z,94778.00
2023-03-26T11:07:27.199Z,94780.00
2023-03-26T11:08:31.466Z,94776.00
2023-03-26T11:09:28.170Z,94774.00
2023-03-26T11:10:28.164Z,94770.00
2023-03-26T11:11:28.154Z,94766.00
2023-03-26T11:12:28.603Z,94764.00
2023-03-26T11:13:28.138Z,94762.00
2023-03-26T11:14:34.416Z,94762.00
2023-03-26T11:15:28.298Z,94762.00
2023-03-26T11:16:27.134Z,94762.00
2023-03-26T11:17:40.414Z,94766.00
2023-03-26T11:18:28.120Z,94766.00
2023-03-26T11:19:27.085Z,94768.00
2023-03-26T11:20:28.092Z,94770.00
2023-03-26T11:21:28.070Z,94770.00
2023-03-26T11:22:28.088Z,94772.00
2023-03-26T11:23:28.110Z,94768.00
2023-03-26T11:24:28.047Z,94768.00
2023-03-26T11:25:28.049Z,94768.00
2023-03-26T11:26:28.032Z,94766.00
2023-03-26T11:27:28.037Z,94772.00
2023-03-26T11:28:27.014Z,94780.00
2023-03-26T11:29:32.467Z,94786.00
2023-03-26T11:30:28.055Z,94788.00
2023-03-26T11:31:27.091Z,94786.00
2023-03-26T11:32:28.032Z,94782.00
2023-03-26T11:33:32.706Z,94776.00
2023-03-26T11:34:27.982Z,94772.00
2023-03-26T11:35:39.258Z,94770.00
2023-03-26T11:36:28.015Z,94772.00
2023-03-26T11:37:27.973Z,94772.00
2023-03-26T11:38:27.945Z,94772.00
2023-03-26T11:39:27.962Z,94768.00
2023-03-26T11:40:27.943Z,94766.00
2023-03-26T11:41:27.948Z,94766.00
2023-03-26T11:42:27.955Z,94766.00
2023-03-26T11:43:27.926Z,94766.00
2023-03-26T11:44:27.919Z,94772.00